Time;durP1;ratioP1;P1;durP2;ratioP2;P2;SDS_P1;SDS_P2;PMS_P1;PMS_P2;Temp;Humidity;BMP_temperature;BMP_pressure;BME280_temperature;BME280_humidity;BME280_pressure;Samples;Min_cycle;Max_cycle;Signal;HPM_P1;HPM_P2
2023/03/16 00:00:42;;;;;;;0.47;0.47;;;1.70;99.90;;;;;;4405735;32;20517;-74
2023/03/16 00:03:08;;;;;;;0.40;0.40;;;1.70;99.90;;;;;;4403835;32;20089;-74
2023/03/16 00:05:33;;;;;;;0.60;0.60;;;1.70;99.90;;;;;;4403481;32;20074;-74
2023/03/16 00:07:59;;;;;;;0.40;0.40;;;1.70;99.90;;;;;;4404316;32;20090;-73
2023/03/16 00:10:26;;;;;;;0.40;0.40;;;1.70;99.90;;;;;;4404039;32;20534;-74
2023/03/16 00:12:52;;;;;;;0.60;0.60;;;1.70;99.90;;;;;;4403110;32;20077;-74
2023/03/16 00:15:18;;;;;;;0.40;0.40;;;1.80;99.90;;;;;;4404851;32;20089;-74
2023/03/16 00:17:47;;;;;;;0.50;0.50;;;1.70;99.90;;;;;;4405978;32;20144;-75
2023/03/16 00:20:13;;;;;;;0.62;0.60;;;1.50;99.90;;;;;;4405795;32;20101;-76
2023/03/16 00:22:38;;;;;;;7.12;1.33;;;1.50;99.90;;;;;;4403568;32;20098;-75
2023/03/16 00:25:05;;;;;;;0.30;0.30;;;1.50;99.90;;;;;;4404399;32;20085;-75
2023/03/16 00:27:30;;;;;;;0.40;0.40;;;1.50;99.90;;;;;;4407069;32;20088;-75
2023/03/16 00:29:56;;;;;;;0.40;0.40;;;1.50;99.90;;;;;;4403918;32;20066;-75
2023/03/16 00:32:26;;;;;;;0.50;0.50;;;1.50;99.90;;;;;;4403835;32;20442;-75
2023/03/16 00:34:52;;;;;;;;;;;1.50;99.90;;;;;;4404027;32;20077;-74
2023/03/16 00:37:19;;;;;;;0.55;0.55;;;1.50;99.90;;;;;;4403455;32;19982;-75
2023/03/16 00:39:46;;;;;;;0.75;0.75;;;1.60;99.90;;;;;;4402797;32;20125;-74
2023/03/16 00:42:13;;;;;;;0.40;0.40;;;1.50;99.90;;;;;;4403577;32;20532;-74
2023/03/16 00:44:40;;;;;;;0.73;0.73;;;1.50;99.90;;;;;;4403964;32;20454;-74
2023/03/16 00:47:07;;;;;;;0.45;0.45;;;1.40;99.90;;;;;;4405008;32;20195;-74
2023/03/16 00:49:33;;;;;;;1.75;0.75;;;1.40;99.90;;;;;;4403561;32;20529;-75
2023/03/16 00:52:01;;;;;;;0.50;0.50;;;1.40;99.90;;;;;;4404410;32;20077;-75
2023/03/16 00:54:28;;;;;;;0.40;0.40;;;1.40;99.90;;;;;;4403564;32;20069;-75
2023/03/16 00:56:53;;;;;;;1.23;1.12;;;1.40;99.90;;;;;;4404167;32;20059;-75
2023/03/16 00:59:20;;;;;;;0.40;0.40;;;1.40;99.90;;;;;;4404598;32;20407;-73
2023/03/16 01:01:45;;;;;;;0.40;0.40;;;1.40;99.90;;;;;;4402363;32;20090;-74
2023/03/16 01:04:12;;;;;;;0.40;0.40;;;1.40;99.90;;;;;;4402296;32;20113;-73
2023/03/16 01:06:38;;;;;;;0.40;0.40;;;1.40;99.90;;;;;;4402948;32;20141;-73
2023/03/16 01:09:04;;;;;;;0.40;0.40;;;1.40;99.90;;;;;;4404006;32;20098;-75
2023/03/16 01:11:32;;;;;;;0.50;0.50;;;1.40;99.90;;;;;;4404661;32;20094;-75
2023/03/16 01:13:58;;;;;;;0.40;0.40;;;1.30;99.90;;;;;;4403461;32;20097;-75
2023/03/16 01:16:24;;;;;;;0.43;0.43;;;1.30;99.90;;;;;;4401589;32;20105;-75
2023/03/16 01:18:51;;;;;;;0.40;0.40;;;1.30;99.90;;;;;;4401786;32;20178;-74
2023/03/16 01:21:17;;;;;;;0.50;0.50;;;1.40;99.90;;;;;;4402278;32;20188;-75
2023/03/16 01:23:43;;;;;;;0.40;0.40;;;1.40;99.90;;;;;;4405898;32;20086;-74
2023/03/16 01:26:09;;;;;;;1.40;1.25;;;1.30;99.90;;;;;;4405816;32;20548;-75
2023/03/16 01:28:35;;;;;;;0.40;0.40;;;1.30;99.90;;;;;;4405645;32;20082;-74
2023/03/16 01:31:05;;;;;;;0.60;0.60;;;1.30;99.90;;;;;;4406227;32;20112;-74
2023/03/16 01:33:30;;;;;;;0.40;0.40;;;1.30;99.90;;;;;;4408038;32;20113;-75
2023/03/16 01:36:00;;;;;;;0.40;0.40;;;1.20;99.90;;;;;;4406235;32;20066;-74
2023/03/16 01:38:25;;;;;;;0.40;0.40;;;1.20;99.90;;;;;;4405788;32;20110;-74
2023/03/16 01:40:52;;;;;;;0.40;0.40;;;1.20;99.90;;;;;;4406383;32;20078;-74
2023/03/16 01:43:20;;;;;;;0.40;0.40;;;1.10;99.90;;;;;;4405225;32;20066;-75
2023/03/16 01:46:06;;;;;;;0.40;0.40;;;1.10;99.90;;;;;;4405877;32;20074;-75
2023/03/16 01:48:38;;;;;;;0.60;0.60;;;1.10;99.90;;;;;;4404566;32;20074;-75
2023/03/16 01:51:08;;;;;;;0.40;0.40;;;1.10;99.90;;;;;;4405804;32;20089;-75
2023/03/16 01:53:35;;;;;;;0.50;0.50;;;1.10;99.90;;;;;;4406260;32;20128;-74
2023/03/16 01:56:02;;;;;;;0.57;0.57;;;1.00;99.90;;;;;;4405023;32;20642;-75
2023/03/16 01:58:30;;;;;;;0.40;0.40;;;1.00;99.90;;;;;;4406541;32;21229;-74
2023/03/16 02:00:57;;;;;;;5.28;1.25;;;0.80;99.90;;;;;;4406058;32;20592;-75
2023/03/16 02:03:24;;;;;;;0.40;0.40;;;0.80;99.90;;;;;;4406721;32;20132;-75
2023/03/16 02:06:11;;;;;;;0.50;0.50;;;0.90;99.90;;;;;;4405761;32;20074;-75
2023/03/16 02:08:38;;;;;;;0.45;0.45;;;1.00;99.90;;;;;;4405536;32;20077;-74
2023/03/16 02:11:07;;;;;;;0.50;0.50;;;1.00;99.90;;;;;;4405350;32;20155;-75
2023/03/16 02:13:35;;;;;;;0.40;0.40;;;1.10;99.90;;;;;;4405748;32;20069;-75
2023/03/16 02:16:04;;;;;;;1.92;1.35;;;1.00;99.90;;;;;;4405191;32;20541;-74
2023/03/16 02:18:30;;;;;;;0.50;0.50;;;0.80;99.90;;;;;;4404683;32;20423;-74
2023/03/16 02:21:35;;;;;;;0.40;0.40;;;0.80;99.90;;;;;;4404250;32;20077;-75
2023/03/16 02:24:02;;;;;;;0.80;0.80;;;1.00;99.90;;;;;;4403204;32;20114;-74
2023/03/16 02:26:43;;;;;;;0.47;0.47;;;1.10;99.90;;;;;;4404271;32;20584;-73
2023/03/16 02:29:24;;;;;;;0.77;0.77;;;1.10;99.90;;;;;;4403840;32;20079;-74
2023/03/16 02:31:51;;;;;;;0.50;0.50;;;0.90;99.90;;;;;;4404227;32;20166;-73
2023/03/16 02:34:17;;;;;;;0.50;0.50;;;0.90;99.90;;;;;;4405372;32;20532;-74
2023/03/16 02:36:45;;;;;;;0.60;0.60;;;0.90;99.90;;;;;;4403611;32;20070;-74
2023/03/16 02:39:10;;;;;;;0.62;0.62;;;0.70;99.90;;;;;;4405829;32;20557;-74
2023/03/16 02:41:36;;;;;;;0.85;0.85;;;0.80;99.90;;;;;;4404836;32;20109;-74
2023/03/16 02:44:13;;;;;;;0.50;0.50;;;0.80;99.90;;;;;;4404177;32;20407;-74
2023/03/16 02:46:42;;;;;;;0.50;0.50;;;0.70;99.90;;;;;;4404106;32;20200;-75
2023/03/16 02:49:16;;;;;;;3.22;2.17;;;0.70;99.90;;;;;;4404867;32;20077;-75
2023/03/16 02:51:44;;;;;;;0.60;0.60;;;0.70;99.90;;;;;;4405894;32;20077;-74
2023/03/16 02:54:10;;;;;;;0.65;0.65;;;0.90;99.90;;;;;;4401099;32;20082;-73
2023/03/16 02:56:35;;;;;;;0.75;0.75;;;1.00;99.90;;;;;;4391229;32;20089;-74
2023/03/16 02:59:01;;;;;;;0.43;0.43;;;0.90;99.90;;;;;;4402659;32;20529;-75
2023/03/16 03:01:26;;;;;;;0.60;0.60;;;1.00;99.90;;;;;;4403618;32;20082;-74
2023/03/16 03:03:52;;;;;;;0.50;0.50;;;1.00;99.90;;;;;;4405545;32;20505;-75
2023/03/16 03:06:17;;;;;;;0.30;0.30;;;1.00;99.90;;;;;;4405720;32;20074;-74
2023/03/16 03:08:43;;;;;;;0.50;0.50;;;1.00;99.90;;;;;;4405487;32;20102;-75
2023/03/16 03:11:08;;;;;;;2.05;1.00;;;0.90;99.90;;;;;;4404932;32;20228;-75
2023/03/16 03:13:37;;;;;;;0.62;0.62;;;1.00;99.90;;;;;;4405538;32;20070;-75
2023/03/16 03:16:02;;;;;;;0.40;0.40;;;1.00;99.90;;;;;;4405786;32;20090;-74
2023/03/16 03:18:28;;;;;;;0.60;0.60;;;1.00;99.90;;;;;;4403594;32;20107;-74
2023/03/16 03:20:53;;;;;;;0.50;0.50;;;1.00;99.90;;;;;;4403620;32;20093;-74
2023/03/16 03:23:19;;;;;;;0.50;0.50;;;1.10;99.90;;;;;;4402829;32;20137;-74
2023/03/16 03:25:44;;;;;;;0.50;0.50;;;1.00;99.90;;;;;;4404269;32;20090;-74
2023/03/16 03:28:10;;;;;;;0.55;0.55;;;0.90;99.90;;;;;;4408445;32;20084;-74
2023/03/16 03:30:36;;;;;;;0.50;0.50;;;0.90;99.90;;;;;;4411397;32;20082;-74
2023/03/16 03:33:01;;;;;;;0.68;0.68;;;0.90;99.90;;;;;;4406191;32;20132;-73
2023/03/16 03:35:27;;;;;;;0.52;0.52;;;0.90;99.90;;;;;;4404270;32;20094;-74
2023/03/16 03:37:52;;;;;;;0.50;0.50;;;0.90;99.90;;;;;;4405546;32;20430;-73
2023/03/16 03:40:19;;;;;;;0.40;0.40;;;0.80;99.90;;;;;;4414289;32;20086;-73
2023/03/16 03:42:45;;;;;;;0.40;0.40;;;0.70;99.90;;;;;;4414771;32;20192;-74
2023/03/16 03:45:12;;;;;;;0.30;0.30;;;0.80;99.90;;;;;;4411727;32;20077;-74
2023/03/16 03:47:40;;;;;;;0.40;0.40;;;0.80;99.90;;;;;;4412821;32;20062;-73
2023/03/16 03:50:07;;;;;;;0.40;0.40;;;0.80;99.90;;;;;;4411527;32;20564;-74
2023/03/16 03:52:32;;;;;;;0.40;0.40;;;0.70;99.90;;;;;;4410154;32;20641;-74
2023/03/16 03:54:58;;;;;;;0.40;0.40;;;0.70;99.90;;;;;;4411733;32;20073;-75
2023/03/16 03:57:23;;;;;;;0.55;0.55;;;0.70;99.90;;;;;;4405989;32;20171;-74
2023/03/16 03:59:49;;;;;;;0.75;0.75;;;0.60;99.90;;;;;;4404562;32;20132;-74
2023/03/16 04:02:15;;;;;;;0.50;0.50;;;0.60;99.90;;;;;;4404226;32;20137;-74
2023/03/16 04:04:41;;;;;;;0.40;0.40;;;0.60;99.90;;;;;;4403641;32;20137;-74
2023/03/16 04:07:07;;;;;;;0.50;0.50;;;0.50;99.90;;;;;;4406534;32;20148;-74
2023/03/16 04:09:33;;;;;;;0.40;0.40;;;0.50;99.90;;;;;;4402998;32;20089;-74
2023/03/16 04:12:01;;;;;;;0.50;0.50;;;0.50;99.90;;;;;;4406109;32;20601;-74
2023/03/16 04:14:27;;;;;;;0.60;0.60;;;0.50;99.90;;;;;;4402829;32;20128;-74
2023/03/16 04:16:53;;;;;;;0.50;0.50;;;0.50;99.90;;;;;;4411809;32;20128;-74
2023/03/16 04:19:20;;;;;;;0.47;0.47;;;0.50;99.90;;;;;;4406180;32;20118;-74
2023/03/16 04:21:45;;;;;;;0.50;0.50;;;0.50;99.90;;;;;;4403637;32;20141;-73
2023/03/16 04:24:13;;;;;;;0.40;0.40;;;0.50;99.90;;;;;;4401279;32;20510;-74
2023/03/16 04:26:40;;;;;;;0.65;0.65;;;0.50;99.90;;;;;;4405803;32;20092;-74
2023/03/16 04:29:06;;;;;;;2.05;0.75;;;0.50;99.90;;;;;;4415953;32;20066;-74
2023/03/16 04:31:32;;;;;;;0.50;0.50;;;0.50;99.90;;;;;;4415464;32;20109;-73
2023/03/16 04:33:58;;;;;;;0.40;0.40;;;0.50;99.90;;;;;;4413939;32;20059;-73
2023/03/16 04:36:23;;;;;;;0.77;0.77;;;0.50;99.90;;;;;;4410167;32;20098;-74
2023/03/16 04:38:50;;;;;;;0.40;0.40;;;0.50;99.90;;;;;;4409206;32;20165;-74
2023/03/16 04:41:17;;;;;;;0.40;0.40;;;0.50;99.90;;;;;;4407023;32;20157;-73
2023/03/16 04:43:43;;;;;;;0.50;0.50;;;0.50;99.90;;;;;;4408784;32;20082;-74
2023/03/16 04:46:09;;;;;;;0.88;0.88;;;0.50;99.90;;;;;;4407438;32;20659;-75
2023/03/16 04:48:35;;;;;;;0.43;0.43;;;0.50;99.90;;;;;;4415942;32;20094;-74
2023/03/16 04:51:02;;;;;;;0.40;0.40;;;0.50;99.90;;;;;;4405938;32;20086;-74
2023/03/16 04:53:28;;;;;;;0.50;0.50;;;0.50;99.90;;;;;;4404443;32;20129;-75
2023/03/16 04:55:54;;;;;;;0.55;0.52;;;0.50;99.90;;;;;;4406911;32;20086;-75
2023/03/16 04:58:19;;;;;;;0.40;0.40;;;0.50;99.90;;;;;;4406696;32;20078;-75
2023/03/16 05:00:45;;;;;;;0.40;0.40;;;0.50;99.90;;;;;;4406315;32;20197;-75
2023/03/16 05:03:10;;;;;;;0.40;0.40;;;0.50;99.90;;;;;;4407280;32;20065;-75
2023/03/16 05:05:37;;;;;;;0.50;0.50;;;0.50;99.90;;;;;;4408858;32;20110;-74
2023/03/16 05:08:04;;;;;;;0.43;0.43;;;0.50;99.90;;;;;;4406767;32;20132;-74
2023/03/16 05:10:30;;;;;;;0.47;0.47;;;0.40;99.90;;;;;;4408013;32;20070;-75
2023/03/16 05:12:56;;;;;;;0.52;0.52;;;0.40;99.90;;;;;;4407312;32;20094;-75
2023/03/16 05:15:21;;;;;;;0.62;0.50;;;0.40;99.90;;;;;;4407748;32;20090;-73
2023/03/16 05:17:47;;;;;;;1.00;0.95;;;0.50;99.90;;;;;;4411025;32;20121;-73
2023/03/16 05:20:13;;;;;;;0.50;0.50;;;0.40;99.90;;;;;;4406046;32;20081;-74
2023/03/16 05:22:41;;;;;;;1.12;0.95;;;0.50;99.90;;;;;;4401430;32;20070;-73
2023/03/16 05:25:07;;;;;;;0.50;0.50;;;0.60;99.90;;;;;;4407180;32;20077;-73
2023/03/16 05:27:33;;;;;;;0.40;0.40;;;0.60;99.90;;;;;;4408577;32;20469;-75
2023/03/16 05:30:00;;;;;;;0.50;0.50;;;0.60;99.90;;;;;;4405946;32;20103;-74
2023/03/16 05:32:28;;;;;;;0.40;0.40;;;0.50;99.90;;;;;;4414291;32;20089;-74
2023/03/16 05:34:54;;;;;;;0.45;0.45;;;0.60;99.90;;;;;;4411430;32;20078;-74
2023/03/16 05:37:19;;;;;;;0.40;0.40;;;0.60;99.90;;;;;;4407571;32;20478;-74
2023/03/16 05:39:45;;;;;;;0.40;0.40;;;0.60;99.90;;;;;;4404588;32;20085;-74
2023/03/16 05:42:10;;;;;;;0.50;0.50;;;0.60;99.90;;;;;;4409965;32;20066;-74
2023/03/16 05:44:36;;;;;;;0.40;0.40;;;0.50;99.90;;;;;;4410653;32;20097;-75
2023/03/16 05:47:01;;;;;;;0.55;0.55;;;0.50;99.90;;;;;;4408453;32;20081;-75
2023/03/16 05:49:27;;;;;;;0.30;0.30;;;0.60;99.90;;;;;;4408638;32;20106;-74
2023/03/16 05:51:53;;;;;;;1.15;1.08;;;0.60;99.90;;;;;;4406281;32;20474;-74
2023/03/16 05:54:18;;;;;;;0.80;0.60;;;0.60;99.90;;;;;;4406694;32;20109;-75
2023/03/16 05:56:44;;;;;;;0.50;0.50;;;0.60;99.90;;;;;;4407883;32;20168;-75
2023/03/16 05:59:09;;;;;;;0.50;0.50;;;0.60;99.90;;;;;;4403876;32;20071;-74
2023/03/16 06:01:36;;;;;;;0.30;0.30;;;0.70;99.90;;;;;;4399292;32;20086;-74
2023/03/16 06:04:04;;;;;;;0.50;0.50;;;0.80;99.90;;;;;;4404586;32;20094;-74
2023/03/16 06:06:29;;;;;;;2.03;0.93;;;0.80;99.90;;;;;;4403501;32;20082;-75
2023/03/16 06:08:55;;;;;;;0.50;0.50;;;0.80;99.90;;;;;;4405766;32;20062;-75
2023/03/16 06:11:21;;;;;;;0.40;0.40;;;0.80;99.90;;;;;;4404048;32;20070;-75
2023/03/16 06:13:46;;;;;;;0.52;0.52;;;0.60;99.90;;;;;;4404474;32;20077;-75
2023/03/16 06:16:13;;;;;;;0.70;0.70;;;0.50;99.90;;;;;;4405311;32;20098;-74
2023/03/16 06:18:39;;;;;;;0.40;0.40;;;0.50;99.90;;;;;;4391150;32;20584;-73
2023/03/16 06:21:04;;;;;;;0.80;0.77;;;0.60;99.90;;;;;;4404084;32;20215;-74
2023/03/16 06:23:30;;;;;;;0.60;0.60;;;0.60;99.90;;;;;;4402350;32;20065;-75
2023/03/16 06:25:58;;;;;;;0.57;0.57;;;0.70;99.90;;;;;;4397294;32;20537;-73
2023/03/16 06:28:23;;;;;;;1.30;0.95;;;0.80;99.90;;;;;;4392160;32;20597;-74
2023/03/16 06:30:53;;;;;;;0.80;0.80;;;0.90;99.90;;;;;;4384115;32;20093;-73
2023/03/16 06:33:19;;;;;;;0.50;0.50;;;1.00;99.90;;;;;;4378900;32;20085;-74
2023/03/16 06:35:47;;;;;;;1.75;1.65;;;1.00;99.90;;;;;;4381987;32;20094;-73
2023/03/16 06:38:13;;;;;;;0.40;0.40;;;0.90;99.90;;;;;;4393443;32;20081;-74
2023/03/16 06:40:39;;;;;;;1.00;0.60;;;1.00;99.90;;;;;;4394240;32;20428;-75
2023/03/16 06:43:05;;;;;;;0.40;0.40;;;1.00;99.90;;;;;;4393434;32;20603;-74
2023/03/16 06:45:31;;;;;;;0.60;0.60;;;1.00;99.90;;;;;;4395251;32;20073;-75
2023/03/16 06:47:56;;;;;;;0.47;0.47;;;1.10;99.90;;;;;;4395422;32;20092;-75
2023/03/16 06:50:22;;;;;;;0.70;0.70;;;1.30;99.90;;;;;;4396910;32;20470;-76
2023/03/16 06:52:48;;;;;;;0.30;0.30;;;1.40;99.90;;;;;;4389488;32;20528;-75
2023/03/16 06:55:14;;;;;;;0.45;0.45;;;1.50;99.90;;;;;;4383543;32;20102;-76
2023/03/16 06:57:40;;;;;;;1.37;1.12;;;1.40;99.90;;;;;;4372066;32;20104;-75
2023/03/16 07:00:08;;;;;;;1.85;1.12;;;1.50;99.90;;;;;;4378179;32;20101;-75
2023/03/16 07:02:34;;;;;;;0.50;0.50;;;1.60;99.90;;;;;;4379977;32;20106;-74
2023/03/16 07:05:01;;;;;;;3.03;1.12;;;1.70;99.90;;;;;;4378341;32;20322;-73
2023/03/16 07:07:27;;;;;;;0.50;0.50;;;1.80;99.90;;;;;;4379689;32;20101;-75
2023/03/16 07:09:52;;;;;;;0.50;0.50;;;2.00;99.90;;;;;;4369463;32;20224;-74
2023/03/16 07:12:18;;;;;;;0.47;0.47;;;2.10;99.90;;;;;;4375103;32;20715;-75
2023/03/16 07:14:43;;;;;;;3.22;1.98;;;2.20;99.90;;;;;;4381870;32;20097;-74
2023/03/16 07:17:09;;;;;;;0.50;0.50;;;2.30;99.90;;;;;;4381690;32;20093;-74
2023/03/16 07:19:34;;;;;;;2.30;1.00;;;2.50;99.90;;;;;;4380782;32;20110;-73
2023/03/16 07:22:01;;;;;;;5.47;1.25;;;2.70;99.90;;;;;;4386764;32;20133;-74
2023/03/16 07:24:27;;;;;;;0.90;0.90;;;2.80;99.90;;;;;;4385763;32;20113;-74
2023/03/16 07:26:52;;;;;;;0.40;0.40;;;2.90;99.90;;;;;;4364603;32;20710;-74
2023/03/16 07:29:18;;;;;;;2.67;1.62;;;3.10;99.90;;;;;;4374328;32;21409;-74
2023/03/16 07:31:44;;;;;;;6.68;2.42;;;3.20;99.90;;;;;;4379412;32;20547;-73
2023/03/16 07:34:09;;;;;;;12.45;0.77;;;3.30;99.90;;;;;;4370148;32;21220;-74
2023/03/16 07:36:35;;;;;;;0.40;0.40;;;3.30;99.90;;;;;;4375170;32;20085;-73
2023/03/16 07:39:00;;;;;;;11.70;1.25;;;3.50;99.90;;;;;;4362230;32;20123;-74
2023/03/16 07:41:26;;;;;;;0.43;0.43;;;3.60;99.90;;;;;;4378516;32;20542;-74
2023/03/16 07:43:52;;;;;;;0.40;0.40;;;3.60;99.90;;;;;;4374711;32;20208;-74
2023/03/16 07:46:17;;;;;;;0.62;0.62;;;3.80;99.90;;;;;;4378039;32;20105;-74
2023/03/16 07:48:44;;;;;;;0.40;0.40;;;3.90;99.90;;;;;;4378502;32;21230;-73
2023/03/16 07:51:10;;;;;;;0.45;0.45;;;4.00;99.90;;;;;;4380310;32;20094;-74
2023/03/16 07:53:37;;;;;;;0.40;0.40;;;4.20;99.90;;;;;;4373775;32;20109;-74
2023/03/16 07:56:03;;;;;;;0.40;0.40;;;4.10;99.90;;;;;;4375647;32;20604;-74
2023/03/16 07:58:29;;;;;;;0.60;0.60;;;4.30;99.90;;;;;;4371257;32;20106;-72
2023/03/16 08:00:58;;;;;;;0.40;0.40;;;4.10;99.90;;;;;;4373775;32;20101;-72
2023/03/16 08:03:25;;;;;;;0.50;0.50;;;4.10;99.90;;;;;;4375927;32;20102;-72
2023/03/16 08:05:53;;;;;;;0.40;0.40;;;4.20;99.90;;;;;;4374778;32;20089;-73
2023/03/16 08:08:21;;;;;;;0.70;0.70;;;4.40;99.90;;;;;;4383800;32;20101;-73
2023/03/16 08:10:48;;;;;;;0.40;0.40;;;4.50;99.90;;;;;;4371460;32;20121;-74
2023/03/16 08:13:13;;;;;;;0.40;0.40;;;4.70;99.90;;;;;;4376875;32;20086;-74
2023/03/16 08:15:39;;;;;;;2.60;0.95;;;4.80;99.90;;;;;;4368642;32;20563;-74
2023/03/16 08:18:06;;;;;;;0.43;0.43;;;4.70;99.90;;;;;;4374625;32;20121;-74
2023/03/16 08:20:32;;;;;;;0.70;0.70;;;4.80;99.90;;;;;;4380320;32;20094;-75
2023/03/16 08:22:58;;;;;;;0.30;0.30;;;5.00;99.90;;;;;;4366483;32;20179;-74
2023/03/16 08:25:24;;;;;;;0.60;0.60;;;5.20;99.90;;;;;;4385779;32;20200;-74
2023/03/16 08:27:50;;;;;;;0.57;0.57;;;5.40;99.90;;;;;;4383670;32;20177;-75
2023/03/16 08:30:15;;;;;;;0.32;0.32;;;5.40;99.90;;;;;;4380885;32;25775;-73
2023/03/16 08:32:41;;;;;;;0.40;0.40;;;5.40;99.90;;;;;;4389626;32;21655;-73
2023/03/16 08:35:12;;;;;;;0.40;0.40;;;5.50;99.90;;;;;;4395938;32;20693;-75
2023/03/16 08:37:38;;;;;;;1.20;1.10;;;5.60;99.90;;;;;;4397063;32;20809;-77
2023/03/16 08:40:09;;;;;;;0.30;0.30;;;5.70;99.90;;;;;;4396646;32;20093;-74
2023/03/16 08:42:36;;;;;;;0.60;0.60;;;5.80;99.90;;;;;;4399404;32;20142;-73
2023/03/16 08:45:08;;;;;;;0.60;0.60;;;6.00;99.90;;;;;;4392994;32;20113;-73
2023/03/16 08:47:34;;;;;;;0.40;0.40;;;6.10;99.90;;;;;;4384051;32;20163;-73
2023/03/16 08:50:00;;;;;;;0.40;0.40;;;6.00;99.90;;;;;;4385575;32;20093;-74
2023/03/16 08:52:26;;;;;;;0.52;0.52;;;5.90;99.90;;;;;;4369603;32;20154;-76
2023/03/16 08:54:51;;;;;;;0.30;0.30;;;5.80;99.90;;;;;;4373222;32;20097;-74
2023/03/16 08:57:17;;;;;;;1.65;0.68;;;5.80;99.90;;;;;;4376408;32;20089;-74
2023/03/16 08:59:43;;;;;;;0.35;0.35;;;5.90;99.90;;;;;;4370956;32;20833;-76
2023/03/16 09:02:12;;;;;;;0.30;0.30;;;6.10;99.90;;;;;;4382688;32;20097;-76
2023/03/16 09:04:39;;;;;;;0.50;0.47;;;6.10;99.90;;;;;;4384979;32;20101;-75
2023/03/16 09:07:04;;;;;;;3.50;1.05;;;6.00;99.90;;;;;;4376301;32;20105;-75
2023/03/16 09:09:30;;;;;;;0.30;0.30;;;6.20;99.90;;;;;;4379384;32;20539;-73
2023/03/16 09:11:55;;;;;;;0.40;0.40;;;6.20;99.90;;;;;;4381211;32;20406;-74
2023/03/16 09:14:22;;;;;;;0.30;0.30;;;6.30;99.90;;;;;;4387624;32;20191;-74
2023/03/16 09:16:47;;;;;;;0.32;0.32;;;6.50;99.90;;;;;;4382138;32;20092;-74
2023/03/16 09:19:13;;;;;;;0.40;0.40;;;6.60;99.90;;;;;;4384478;32;20195;-73
2023/03/16 09:21:38;;;;;;;0.45;0.45;;;6.60;99.90;;;;;;4383023;32;20105;-75
2023/03/16 09:24:06;;;;;;;0.40;0.40;;;6.80;99.90;;;;;;4385902;32;20101;-75
2023/03/16 09:26:32;;;;;;;0.30;0.30;;;6.90;99.90;;;;;;4382371;32;20101;-75
2023/03/16 09:28:57;;;;;;;0.75;0.68;;;7.00;99.90;;;;;;4375666;32;20277;-75
2023/03/16 09:31:23;;;;;;;3.53;2.33;;;7.20;99.90;;;;;;4382971;32;20089;-74
2023/03/16 09:33:48;;;;;;;0.45;0.45;;;7.00;99.90;;;;;;4388673;32;20152;-74
2023/03/16 09:36:14;;;;;;;0.30;0.30;;;6.90;99.90;;;;;;4381253;32;20156;-75
2023/03/16 09:38:42;;;;;;;0.30;0.30;;;7.20;99.90;;;;;;4377775;32;20925;-74
2023/03/16 09:41:21;;;;;;;1.30;1.00;;;7.60;99.90;;;;;;4383694;32;20781;-74
2023/03/16 09:43:49;;;;;;;0.40;0.40;;;7.70;99.90;;;;;;4386228;32;20246;-74
2023/03/16 09:46:44;;;;;;;0.40;0.40;;;7.70;99.90;;;;;;4383958;32;20093;-74
2023/03/16 09:49:12;;;;;;;0.30;0.30;;;7.50;99.90;;;;;;4373827;32;20101;-74
2023/03/16 09:51:51;;;;;;;0.30;0.30;;;7.50;99.90;;;;;;4391631;32;20095;-74
2023/03/16 09:54:26;;;;;;;0.50;0.50;;;7.60;99.90;;;;;;4382534;32;20815;-74
2023/03/16 09:56:54;;;;;;;0.40;0.40;;;7.90;99.90;;;;;;4392990;32;20253;-75
2023/03/16 09:59:21;;;;;;;0.20;0.20;;;7.80;99.90;;;;;;4395014;32;20129;-76
2023/03/16 10:01:52;;;;;;;0.30;0.30;;;7.90;99.90;;;;;;4382641;32;20414;-75
2023/03/16 10:04:35;;;;;;;0.30;0.30;;;8.20;99.90;;;;;;4392513;32;20101;-73
2023/03/16 10:07:11;;;;;;;10.93;0.73;;;8.50;99.90;;;;;;4390046;32;20117;-76
2023/03/16 10:09:51;;;;;;;0.40;0.40;;;8.80;99.90;;;;;;4394675;32;20073;-74
2023/03/16 10:12:17;;;;;;;1.23;0.65;;;9.00;99.90;;;;;;4379480;32;20515;-75
2023/03/16 10:15:09;;;;;;;2.17;0.95;;;9.20;99.90;;;;;;4393289;32;20094;-75
2023/03/16 10:17:37;;;;;;;;;;;9.10;99.90;;;;;;4374031;32;20740;-74
2023/03/16 10:20:07;;;;;;;0.37;0.37;;;9.00;99.90;;;;;;4382665;32;19987;-75
2023/03/16 10:22:38;;;;;;;9.25;1.58;;;8.80;99.90;;;;;;4373045;32;20078;-74
2023/03/16 10:25:29;;;;;;;0.30;0.30;;;9.00;99.90;;;;;;4370345;32;20182;-75
2023/03/16 10:27:56;;;;;;;0.50;0.50;;;8.90;99.90;;;;;;4357548;32;20250;-74
2023/03/16 10:30:33;;;;;;;1.98;0.52;;;9.10;99.90;;;;;;4367193;32;20419;-74
2023/03/16 10:33:02;;;;;;;0.40;0.40;;;9.40;99.50;;;;;;4377443;32;21377;-73
2023/03/16 10:36:01;;;;;;;5.90;0.62;;;9.10;99.10;;;;;;4376668;32;20121;-74
2023/03/16 10:38:37;;;;;;;0.37;0.37;;;9.20;99.90;;;;;;4350489;32;20762;-73
2023/03/16 10:41:24;;;;;;;1.02;0.73;;;9.50;99.30;;;;;;4360635;32;21734;-75
2023/03/16 10:43:54;;;;;;;0.40;0.40;;;9.60;98.10;;;;;;4373365;32;20565;-73
2023/03/16 10:46:21;;;;;;;0.50;0.50;;;10.00;98.40;;;;;;4370435;32;20100;-74
2023/03/16 10:48:59;;;;;;;0.30;0.30;;;10.00;97.80;;;;;;4374948;32;20090;-73
2023/03/16 10:51:28;;;;;;;0.35;0.35;;;10.30;95.90;;;;;;4376749;32;20110;-73
2023/03/16 10:54:01;;;;;;;0.30;0.30;;;10.50;93.60;;;;;;4373467;32;20076;-75
2023/03/16 10:56:33;;;;;;;0.30;0.30;;;10.60;91.60;;;;;;4381326;32;20092;-74
2023/03/16 10:58:59;;;;;;;5.72;1.05;;;10.70;95.00;;;;;;4377161;32;20085;-74
2023/03/16 11:01:27;;;;;;;0.35;0.35;;;10.70;93.90;;;;;;4370748;32;21149;-73
2023/03/16 11:03:55;;;;;;;0.30;0.30;;;10.70;93.70;;;;;;4371435;32;20265;-74
2023/03/16 11:06:29;;;;;;;0.30;0.30;;;10.60;92.80;;;;;;4375651;32;20894;-74
2023/03/16 11:09:02;;;;;;;0.28;0.28;;;10.60;93.20;;;;;;4377630;32;20612;-74
2023/03/16 11:11:32;;;;;;;0.30;0.30;;;10.80;94.80;;;;;;4378029;32;20508;-76
2023/03/16 11:14:00;;;;;;;1.58;0.85;;;10.90;94.60;;;;;;4366728;32;20093;-74
2023/03/16 11:16:49;;;;;;;0.30;0.30;;;11.10;95.70;;;;;;4369195;32;20769;-76
2023/03/16 11:19:23;;;;;;;0.30;0.30;;;11.20;91.90;;;;;;4360126;32;20215;-74
2023/03/16 11:21:53;;;;;;;0.43;0.43;;;11.20;91.60;;;;;;4388755;32;20062;-74
2023/03/16 11:24:38;;;;;;;0.40;0.40;;;11.10;91.20;;;;;;4381818;32;20633;-73
2023/03/16 11:27:11;;;;;;;0.40;0.40;;;11.40;90.70;;;;;;4372713;32;20110;-75
2023/03/16 11:29:47;;;;;;;0.73;0.60;;;11.30;89.90;;;;;;4380665;32;20315;-74
2023/03/16 11:32:19;;;;;;;0.30;0.30;;;11.40;90.50;;;;;;4378472;32;20105;-76
2023/03/16 11:34:46;;;;;;;0.40;0.40;;;11.70;90.90;;;;;;4386795;32;20118;-74
2023/03/16 11:37:42;;;;;;;0.20;0.20;;;12.10;87.60;;;;;;4379575;32;20105;-73
2023/03/16 11:40:18;;;;;;;0.30;0.30;;;12.60;85.30;;;;;;4382494;32;20105;-73
2023/03/16 11:42:55;;;;;;;0.20;0.20;;;12.40;84.20;;;;;;4379261;32;121780;-74
2023/03/16 11:45:35;;;;;;;4.80;0.80;;;12.60;81.60;;;;;;4382955;32;20153;-75
2023/03/16 11:48:14;;;;;;;0.40;0.40;;;12.60;80.20;;;;;;4380409;32;20089;-74
2023/03/16 11:51:03;;;;;;;0.40;0.40;;;12.70;84.00;;;;;;4390497;32;20098;-74
2023/03/16 11:53:41;;;;;;;0.40;0.40;;;13.10;78.20;;;;;;4382738;32;20825;-74
2023/03/16 11:56:17;;;;;;;0.40;0.40;;;12.90;78.60;;;;;;4366222;32;20891;-75
2023/03/16 11:59:11;;;;;;;0.40;0.40;;;13.30;76.20;;;;;;4373730;32;20114;-75
2023/03/16 12:01:53;;;;;;;0.75;0.50;;;12.30;77.70;;;;;;4359612;32;21113;-74
2023/03/16 12:04:45;;;;;;;0.73;0.70;;;12.40;78.90;;;;;;4361475;32;20152;-74
2023/03/16 12:07:43;;;;;;;0.40;0.40;;;13.30;77.00;;;;;;4367012;32;20110;-74
2023/03/16 12:10:22;;;;;;;0.30;0.30;;;13.00;74.20;;;;;;4370553;32;20196;-73
2023/03/16 12:13:00;;;;;;;0.50;0.50;;;13.10;73.00;;;;;;4374255;32;21058;-74
2023/03/16 12:15:41;;;;;;;0.35;0.35;;;13.70;73.30;;;;;;4373476;32;20105;-75
2023/03/16 12:18:16;;;;;;;0.40;0.40;;;14.00;67.60;;;;;;4371663;32;20184;-75
2023/03/16 12:21:03;;;;;;;1.00;0.88;;;14.10;68.40;;;;;;4367041;32;20498;-74
2023/03/16 12:23:35;;;;;;;0.30;0.30;;;14.10;68.90;;;;;;4371165;32;20114;-76
2023/03/16 12:26:02;;;;;;;0.40;0.40;;;13.40;70.60;;;;;;4370452;32;20097;-74
2023/03/16 12:28:30;;;;;;;1.75;1.12;;;13.70;70.10;;;;;;4380059;32;20122;-74
2023/03/16 12:31:21;;;;;;;0.40;0.40;;;14.10;70.90;;;;;;4374763;32;20102;-74
2023/03/16 12:33:52;;;;;;;0.37;0.37;;;14.00;69.80;;;;;;4369127;32;20105;-74
2023/03/16 12:36:40;;;;;;;0.40;0.40;;;14.20;66.90;;;;;;4373017;32;21095;-73
2023/03/16 12:39:38;;;;;;;0.30;0.30;;;14.60;71.20;;;;;;4373736;32;20207;-73
2023/03/16 12:42:28;;;;;;;0.70;0.70;;;14.80;67.20;;;;;;4354217;32;20564;-74
2023/03/16 12:45:01;;;;;;;0.40;0.40;;;14.60;69.10;;;;;;4365468;32;20501;-75
2023/03/16 12:47:53;;;;;;;0.32;0.32;;;15.00;69.30;;;;;;4371235;32;20571;-75
2023/03/16 12:50:19;;;;;;;0.68;0.68;;;15.00;68.30;;;;;;4376189;32;20747;-73
2023/03/16 12:52:51;;;;;;;3.10;0.50;;;15.50;66.70;;;;;;4384337;32;20105;-73
2023/03/16 12:55:22;;;;;;;0.40;0.40;;;15.50;66.30;;;;;;4388299;32;20159;-74
2023/03/16 12:57:50;;;;;;;0.40;0.40;;;15.60;67.60;;;;;;4378956;32;20098;-74
2023/03/16 13:00:17;;;;;;;0.55;0.55;;;15.30;62.50;;;;;;4387307;32;20545;-74
2023/03/16 13:02:52;;;;;;;0.37;0.37;;;15.60;66.50;;;;;;4388806;32;20783;-74
2023/03/16 13:05:31;;;;;;;3.20;1.30;;;15.70;64.50;;;;;;4384600;32;20729;-74